< < Back
Terminal Aerodrome Forecast


Current Version              Previous Versions:   1  2  3  4  5  6  7  8  9  

Terminal Aerodrome Forecast

709
FTUS42 KGSP 030117 AAA
TAFCLT
TAF AMD
KCLT 030117Z 0301/0324 22005KT P6SM VCSH SCT060 SCT120 BKN250
     FM030300 00000KT P6SM SCT060 BKN250
     FM031700 35004KT P6SM SCT090=

Latest METAR

803
SAUS70 KWBC 030400 RRL
MTRCLT
METAR KCLT 030352Z 35005KT 10SM FEW070 BKN120 BKN250 26/19 A3001 RMK AO2
SLP152 OCNL LTGIC DSNT NE CB DSNT NE T02610194


USA.gov is the U.S. government's official web portal to all federal, state and local government web resources and services.